Time;durP1;ratioP1;P1;durP2;ratioP2;P2;SDS_P1;SDS_P2;PMS_P1;PMS_P2;Temp;Humidity;BMP_temperature;BMP_pressure;BME280_temperature;BME280_humidity;BME280_pressure;Samples;Min_cycle;Max_cycle;Signal;HPM_P1;HPM_P2
2023/03/07 00:02:26;;;;;;;;;;;;;;;6.13;62.07;99444.87;5396215;32;35830;-65
2023/03/07 00:05:27;;;;;;;;;;;;;;;6.09;62.02;99440.66;5387306;32;36323;-79
2023/03/07 00:08:30;;;;;;;;;;;;;;;6.55;60.81;99437.22;5386541;32;35484;-78
2023/03/07 00:11:31;;;;;;;;;;;;;;;5.89;62.38;99442.19;5396419;32;35868;-65
2023/03/07 00:14:33;;;;;;;;;;;;;;;6.53;60.68;99443.41;5368712;32;35037;-65
2023/03/07 00:17:36;;;;;;;;;;;;;;;6.14;61.90;99443.97;5402771;32;35863;-65
2023/03/07 00:20:37;;;;;;;;;;;;;;;6.57;60.50;99440.62;5369769;32;34701;-66
2023/03/07 00:23:40;;;;;;;;;;;;;;;7.53;57.12;99452.47;5395596;32;35744;-64
2023/03/07 00:26:42;;;;;;;;;;;;;;;7.25;57.50;99439.69;5387317;32;36085;-79
2023/03/07 00:29:44;;;;;;;;;;;;;;;7.18;58.00;99445.22;5369694;32;48253;-78
2023/03/07 00:32:46;;;;;;;;;;;;;;;6.10;62.24;99458.00;5398023;32;37525;-77
2023/03/07 00:35:59;;;;;;;;;;;;;;;6.38;61.39;99452.66;5378139;32;36257;-78
2023/03/07 00:39:01;;;;;;;;;;;;;;;5.80;62.67;99454.72;5381956;32;36778;-74
2023/03/07 00:42:02;;;;;;;;;;;;;;;5.86;62.67;99444.91;5369738;32;35366;-66
2023/03/07 00:45:04;;;;;;;;;;;;;;;5.36;65.30;99455.28;5367860;32;35821;-67
2023/03/07 00:48:06;;;;;;;;;;;;;;;5.12;64.98;99454.31;5370664;32;35307;-66
2023/03/07 00:51:09;;;;;;;;;;;;;;;5.19;65.35;99443.69;5383526;32;35137;-66
2023/03/07 00:54:11;;;;;;;;;;;;;;;5.06;65.41;99446.69;5395872;32;34612;-77
2023/03/07 00:57:13;;;;;;;;;;;;;;;6.34;61.79;99438.88;5383075;32;45539;-78
2023/03/07 01:00:15;;;;;;;;;;;;;;;6.64;59.92;99429.03;5383230;32;35303;-78
2023/03/07 01:03:18;;;;;;;;;;;;;;;6.21;61.48;99445.44;5382324;32;35836;-65
2023/03/07 01:06:21;;;;;;;;;;;;;;;5.81;62.46;99436.37;5385506;32;36369;-79
2023/03/07 01:09:22;;;;;;;;;;;;;;;5.29;65.12;99424.28;5385390;32;35900;-78
2023/03/07 01:12:24;;;;;;;;;;;;;;;5.42;65.03;99426.41;5368445;32;36358;-65
2023/03/07 01:15:26;;;;;;;;;;;;;;;5.82;63.53;99425.06;5402546;32;36117;-78
2023/03/07 01:18:28;;;;;;;;;;;;;;;6.42;62.30;99423.75;5380374;32;36385;-77
2023/03/07 01:21:34;;;;;;;;;;;;;;;5.30;64.49;99429.44;5384014;32;35369;-67
2023/03/07 01:24:37;;;;;;;;;;;;;;;5.37;65.20;99430.94;5384790;32;35175;-76
2023/03/07 01:27:39;;;;;;;;;;;;;;;5.28;64.42;99423.41;5397647;32;35506;-65
2023/03/07 01:30:41;;;;;;;;;;;;;;;5.49;65.04;99413.19;5377859;32;35970;-79
2023/03/07 01:33:45;;;;;;;;;;;;;;;6.47;61.16;99406.19;5385706;32;44961;-78
2023/03/07 01:36:47;;;;;;;;;;;;;;;6.16;62.39;99405.63;5398965;32;35437;-77
2023/03/07 01:39:50;;;;;;;;;;;;;;;6.93;60.05;99414.00;5382679;32;35683;-66
2023/03/07 01:42:52;;;;;;;;;;;;;;;6.54;60.76;99412.00;5375601;32;36603;-75
2023/03/07 01:46:19;;;;;;;;;;;;;;;6.06;63.02;99412.09;5380844;32;35960;-79
2023/03/07 01:49:21;;;;;;;;;;;;;;;5.69;63.85;99422.03;5383432;32;44909;-78
2023/03/07 01:52:24;;;;;;;;;;;;;;;5.75;64.04;99420.13;5399385;32;35584;-65
2023/03/07 01:55:27;;;;;;;;;;;;;;;6.00;63.04;99410.53;5369076;32;36120;-78
2023/03/07 01:58:29;;;;;;;;;;;;;;;6.03;63.70;99405.22;5383587;32;35759;-66
2023/03/07 02:01:30;;;;;;;;;;;;;;;6.02;63.75;99411.34;5387588;32;34738;-66
2023/03/07 02:04:38;;;;;;;;;;;;;;;5.99;63.52;99408.84;5367752;32;35379;-72
2023/03/07 02:07:45;;;;;;;;;;;;;;;5.82;64.48;99412.00;5395009;32;35285;-78
2023/03/07 02:10:47;;;;;;;;;;;;;;;6.15;63.76;99407.37;5368978;32;47879;-78
2023/03/07 02:13:49;;;;;;;;;;;;;;;5.93;64.35;99396.88;5384390;32;35249;-66
2023/03/07 02:16:51;;;;;;;;;;;;;;;6.03;63.80;99399.13;5376729;32;38232;-64
2023/03/07 02:19:59;;;;;;;;;;;;;;;6.08;63.28;99394.62;5375029;32;35459;-65
2023/03/07 02:23:03;;;;;;;;;;;;;;;5.70;64.48;99389.81;5386482;32;35459;-78
2023/03/07 02:26:24;;;;;;;;;;;;;;;5.80;64.66;99389.53;5376004;32;35384;-78
2023/03/07 02:29:26;;;;;;;;;;;;;;;5.77;64.92;99390.47;5395931;32;36126;-78
2023/03/07 02:32:28;;;;;;;;;;;;;;;5.27;66.91;99390.44;5383629;32;36337;-65
2023/03/07 02:35:30;;;;;;;;;;;;;;;6.11;64.28;99387.50;5398869;32;34815;-66
2023/03/07 02:38:32;;;;;;;;;;;;;;;5.72;65.36;99389.75;5383518;32;35744;-74
2023/03/07 02:41:34;;;;;;;;;;;;;;;5.55;65.94;99390.38;5375023;32;35616;-66
2023/03/07 02:44:36;;;;;;;;;;;;;;;5.83;64.84;99392.00;5354410;32;37308;-77
2023/03/07 02:47:37;;;;;;;;;;;;;;;5.96;64.58;99395.91;5380839;32;34987;-78
2023/03/07 02:50:39;;;;;;;;;;;;;;;5.64;65.27;99397.84;5399154;32;35826;-78
2023/03/07 02:53:41;;;;;;;;;;;;;;;5.61;65.96;99391.91;5369312;32;34673;-76
2023/03/07 02:56:43;;;;;;;;;;;;;;;5.85;65.00;99390.19;5398057;32;44408;-66
2023/03/07 02:59:45;;;;;;;;;;;;;;;5.95;64.84;99396.81;5383594;32;35823;-79
2023/03/07 03:02:47;;;;;;;;;;;;;;;5.67;65.40;99391.72;5402886;32;35629;-81
2023/03/07 03:05:49;;;;;;;;;;;;;;;6.02;64.67;99400.06;5388672;32;35589;-66
2023/03/07 03:08:51;;;;;;;;;;;;;;;5.87;64.58;99402.28;5362657;32;35976;-79
2023/03/07 03:11:52;;;;;;;;;;;;;;;5.62;65.52;99399.69;5398617;32;35158;-77
2023/03/07 03:14:54;;;;;;;;;;;;;;;6.17;63.53;99391.66;5384431;32;36089;-78
2023/03/07 03:17:56;;;;;;;;;;;;;;;6.39;63.05;99400.41;5388547;32;35271;-77
2023/03/07 03:20:58;;;;;;;;;;;;;;;6.55;62.49;99386.75;5385395;32;36273;-66
2023/03/07 03:24:09;;;;;;;;;;;;;;;6.41;62.81;99392.50;5394653;32;35523;-65
2023/03/07 03:27:11;;;;;;;;;;;;;;;6.51;62.22;99396.47;5375857;32;37665;-78
2023/03/07 03:30:13;;;;;;;;;;;;;;;6.44;62.94;99392.38;5383348;32;43003;-65
2023/03/07 03:33:15;;;;;;;;;;;;;;;6.10;64.20;99396.25;5385538;32;34784;-79
2023/03/07 03:36:17;;;;;;;;;;;;;;;6.35;63.65;99390.97;5383983;32;35302;-77
2023/03/07 03:39:19;;;;;;;;;;;;;;;5.75;64.66;99381.84;5382497;32;36868;-77
2023/03/07 03:42:21;;;;;;;;;;;;;;;5.96;64.94;99393.28;5352149;32;35865;-71
2023/03/07 03:45:23;;;;;;;;;;;;;;;5.95;64.32;99387.22;5368900;32;35501;-79
2023/03/07 03:48:25;;;;;;;;;;;;;;;6.18;63.44;99385.53;5386922;32;35992;-66
2023/03/07 03:51:27;;;;;;;;;;;;;;;6.35;62.54;99385.75;5384302;32;35238;-65
2023/03/07 03:54:29;;;;;;;;;;;;;;;5.86;64.31;99384.06;5371064;32;36895;-65
2023/03/07 03:57:31;;;;;;;;;;;;;;;6.26;63.40;99377.44;5382059;32;35468;-78
2023/03/07 04:00:33;;;;;;;;;;;;;;;5.75;64.83;99383.59;5398143;32;36121;-66
2023/03/07 04:03:36;;;;;;;;;;;;;;;5.89;64.24;99384.81;5368945;32;34575;-66
2023/03/07 04:06:38;;;;;;;;;;;;;;;6.30;63.26;99381.63;5383825;32;34736;-78
2023/03/07 04:09:40;;;;;;;;;;;;;;;6.41;62.30;99375.09;5364302;32;36625;-65
2023/03/07 04:12:42;;;;;;;;;;;;;;;6.55;62.11;99381.53;5384427;32;35946;-66
2023/03/07 04:15:44;;;;;;;;;;;;;;;5.90;63.74;99381.28;5388087;32;43825;-65
2023/03/07 04:18:46;;;;;;;;;;;;;;;5.89;64.06;99382.19;5369278;32;36938;-65
2023/03/07 04:21:48;;;;;;;;;;;;;;;5.58;65.40;99389.41;5383374;32;35814;-65
2023/03/07 04:24:50;;;;;;;;;;;;;;;5.90;64.02;99386.50;5382520;32;35644;-64
2023/03/07 04:27:52;;;;;;;;;;;;;;;5.85;64.83;99391.03;5376943;32;35385;-66
2023/03/07 04:30:55;;;;;;;;;;;;;;;5.68;64.70;99383.81;5389671;32;36023;-66
2023/03/07 04:33:57;;;;;;;;;;;;;;;5.62;64.98;99391.84;5369108;32;35630;-65
2023/03/07 04:36:59;;;;;;;;;;;;;;;5.87;64.67;99398.81;5383233;32;34915;-74
2023/03/07 04:40:00;;;;;;;;;;;;;;;6.24;63.41;99390.50;5371051;32;35368;-65
2023/03/07 04:43:04;;;;;;;;;;;;;;;6.64;61.89;99392.50;5359153;32;35848;-65
2023/03/07 04:46:07;;;;;;;;;;;;;;;6.35;62.17;99398.81;5379089;32;35977;-66
2023/03/07 04:49:09;;;;;;;;;;;;;;;6.13;63.41;99403.97;5372749;32;34468;-65
2023/03/07 04:52:11;;;;;;;;;;;;;;;5.60;64.96;99404.09;5394008;32;36082;-74
2023/03/07 04:55:13;;;;;;;;;;;;;;;6.00;63.89;99407.09;5383173;32;44867;-78
2023/03/07 04:58:15;;;;;;;;;;;;;;;6.33;62.79;99402.41;5372946;32;832290;-79
2023/03/07 05:01:17;;;;;;;;;;;;;;;5.69;64.32;99411.59;5384126;32;35416;-65
2023/03/07 05:04:19;;;;;;;;;;;;;;;6.52;62.07;99400.78;5382796;32;35861;-79
2023/03/07 05:07:21;;;;;;;;;;;;;;;6.74;60.28;99409.47;5384967;32;35838;-65
2023/03/07 05:10:23;;;;;;;;;;;;;;;6.69;60.30;99405.34;5392167;32;35373;-79
2023/03/07 05:13:25;;;;;;;;;;;;;;;6.96;59.67;99409.50;5395611;32;35735;-66
2023/03/07 05:16:27;;;;;;;;;;;;;;;7.53;58.20;99404.53;5374933;32;35228;-65
2023/03/07 05:19:29;;;;;;;;;;;;;;;7.11;59.28;99404.56;5398424;32;35536;-65
2023/03/07 05:22:31;;;;;;;;;;;;;;;7.18;58.72;99403.41;5384364;32;35958;-79
2023/03/07 05:25:33;;;;;;;;;;;;;;;6.45;61.10;99402.78;5398553;32;36068;-67
2023/03/07 05:28:35;;;;;;;;;;;;;;;6.98;59.99;99402.44;5383764;32;35326;-74
2023/03/07 05:31:36;;;;;;;;;;;;;;;7.03;58.13;99410.97;5391421;32;35061;-79
2023/03/07 05:34:39;;;;;;;;;;;;;;;7.04;56.82;99412.66;5395237;32;35179;-66
2023/03/07 05:37:40;;;;;;;;;;;;;;;6.74;55.46;99413.84;5383660;32;34489;-75
2023/03/07 05:40:43;;;;;;;;;;;;;;;6.88;56.16;99416.78;5399636;32;35960;-78
2023/03/07 05:43:45;;;;;;;;;;;;;;;6.94;57.44;99400.00;5361870;32;44535;-79
2023/03/07 05:46:47;;;;;;;;;;;;;;;7.23;57.88;99411.91;5395557;32;35744;-78
2023/03/07 05:49:49;;;;;;;;;;;;;;;6.50;61.33;99418.25;5368854;32;35290;-64
2023/03/07 05:52:51;;;;;;;;;;;;;;;6.69;59.71;99423.63;5388002;32;36318;-78
2023/03/07 05:55:53;;;;;;;;;;;;;;;6.11;62.17;99424.03;5393819;32;35523;-65
2023/03/07 05:58:55;;;;;;;;;;;;;;;6.08;63.22;99431.13;5382995;32;35692;-65
2023/03/07 06:01:57;;;;;;;;;;;;;;;6.66;61.57;99428.97;5398799;32;35726;-65
2023/03/07 06:04:59;;;;;;;;;;;;;;;6.15;62.43;99427.41;5385908;32;35465;-79
2023/03/07 06:08:01;;;;;;;;;;;;;;;6.22;62.81;99434.09;5404991;32;35599;-66
2023/03/07 06:11:03;;;;;;;;;;;;;;;6.81;61.23;99430.13;5370556;32;34823;-80
2023/03/07 06:14:05;;;;;;;;;;;;;;;7.25;58.81;99431.00;5388311;32;35207;-78
2023/03/07 06:17:07;;;;;;;;;;;;;;;6.74;60.05;99432.13;5400441;32;35660;-74
2023/03/07 06:20:09;;;;;;;;;;;;;;;6.21;62.67;99437.63;5369042;32;35748;-79
2023/03/07 06:23:11;;;;;;;;;;;;;;;6.63;61.92;99447.34;5394340;32;34720;-65
2023/03/07 06:26:14;;;;;;;;;;;;;;;7.11;59.88;99443.75;5370506;32;45077;-78
2023/03/07 06:29:16;;;;;;;;;;;;;;;7.25;58.69;99449.28;5396305;32;35408;-66
2023/03/07 06:32:18;;;;;;;;;;;;;;;6.57;60.76;99458.03;5384375;32;35750;-66
2023/03/07 06:35:20;;;;;;;;;;;;;;;7.14;58.74;99457.53;5387835;32;34277;-78
2023/03/07 06:38:22;;;;;;;;;;;;;;;6.76;60.30;99456.41;5393450;32;34782;-65
2023/03/07 06:41:24;;;;;;;;;;;;;;;6.89;59.80;99455.06;5380074;32;35390;-80
2023/03/07 06:44:26;;;;;;;;;;;;;;;6.64;60.54;99455.16;5360397;32;36549;-81
2023/03/07 06:47:28;;;;;;;;;;;;;;;6.68;60.95;99456.72;5380265;32;34672;-77
2023/03/07 06:50:30;;;;;;;;;;;;;;;7.75;57.40;99456.81;5399315;32;35488;-83
2023/03/07 06:53:36;;;;;;;;;;;;;;;7.75;56.81;99447.19;5378618;32;36527;-71
2023/03/07 06:56:38;;;;;;;;;;;;;;;7.30;57.67;99457.78;5366361;32;34120;-67
2023/03/07 06:59:40;;;;;;;;;;;;;;;7.56;57.57;99459.34;5383420;32;35960;-67
2023/03/07 07:02:42;;;;;;;;;;;;;;;7.59;57.40;99462.66;5375430;32;38340;-66
2023/03/07 07:05:45;;;;;;;;;;;;;;;8.34;55.26;99461.22;5398701;32;34767;-67
2023/03/07 07:08:47;;;;;;;;;;;;;;;8.26;55.19;99466.78;5372920;32;34675;-73
2023/03/07 07:11:49;;;;;;;;;;;;;;;8.63;53.20;99460.78;5385879;32;34826;-64
2023/03/07 07:14:51;;;;;;;;;;;;;;;8.98;52.62;99453.06;5384030;32;34740;-63
2023/03/07 07:17:53;;;;;;;;;;;;;;;8.72;53.27;99450.81;5373377;32;35369;-72
2023/03/07 07:20:55;;;;;;;;;;;;;;;8.59;54.28;99461.00;5383002;32;34877;-70
2023/03/07 07:23:57;;;;;;;;;;;;;;;8.28;54.64;99466.72;5368619;32;36087;-72
2023/03/07 07:26:59;;;;;;;;;;;;;;;8.99;53.18;99457.38;5389596;32;34498;-78
2023/03/07 07:30:02;;;;;;;;;;;;;;;9.53;51.66;99460.00;5391425;32;34771;-79
2023/03/07 07:33:04;;;;;;;;;;;;;;;9.12;52.98;99468.97;5376766;32;36008;-63
2023/03/07 07:36:06;;;;;;;;;;;;;;;8.93;52.61;99465.50;5384461;32;35876;-64
2023/03/07 07:39:09;;;;;;;;;;;;;;;9.30;51.96;99463.78;5389012;32;36032;-70
2023/03/07 07:42:11;;;;;;;;;;;;;;;8.73;53.13;99468.22;5391137;32;34674;-76
2023/03/07 07:45:13;;;;;;;;;;;;;;;9.28;51.06;99461.22;5366309;32;46169;-77
2023/03/07 07:48:15;;;;;;;;;;;;;;;9.70;49.79;99463.50;5392901;32;34987;-66
2023/03/07 07:51:17;;;;;;;;;;;;;;;9.70;46.77;99466.13;5385753;32;34825;-68
2023/03/07 07:54:19;;;;;;;;;;;;;;;9.77;46.60;99470.13;5400101;32;34599;-68
2023/03/07 07:57:21;;;;;;;;;;;;;;;9.77;44.51;99474.53;5384331;32;34567;-65
2023/03/07 08:00:23;;;;;;;;;;;;;;;9.33;45.71;99467.06;5384671;32;34836;-68
2023/03/07 08:03:25;;;;;;;;;;;;;;;8.99;48.36;99470.47;5391873;32;34569;-71
2023/03/07 08:06:28;;;;;;;;;;;;;;;9.59;47.02;99465.78;5371927;32;34892;-70
2023/03/07 08:09:29;;;;;;;;;;;;;;;9.48;46.12;99461.09;5381256;32;35257;-68
2023/03/07 08:12:31;;;;;;;;;;;;;;;9.65;45.91;99469.91;5394574;32;35924;-66
2023/03/07 08:15:33;;;;;;;;;;;;;;;9.20;47.44;99466.81;5384247;32;35081;-65
2023/03/07 08:18:35;;;;;;;;;;;;;;;8.98;47.60;99463.53;5388326;32;35934;-64
2023/03/07 08:21:37;;;;;;;;;;;;;;;9.22;47.24;99459.75;5386599;32;34782;-64
2023/03/07 08:24:39;;;;;;;;;;;;;;;9.30;44.80;99467.25;5387543;32;35881;-67
2023/03/07 08:27:42;;;;;;;;;;;;;;;9.25;45.32;99468.37;5381688;32;34568;-68
2023/03/07 08:30:43;;;;;;;;;;;;;;;9.87;43.23;99464.44;5402829;32;44555;-66
2023/03/07 08:33:46;;;;;;;;;;;;;;;10.18;42.50;99464.56;5386560;32;36448;-66
2023/03/07 08:36:48;;;;;;;;;;;;;;;10.17;41.90;99464.62;5391531;32;34957;-66
2023/03/07 08:39:50;;;;;;;;;;;;;;;10.08;42.32;99467.72;5380327;32;35070;-67
2023/03/07 08:42:53;;;;;;;;;;;;;;;9.99;41.93;99466.44;5362338;32;35008;-71
2023/03/07 08:45:56;;;;;;;;;;;;;;;9.94;40.13;99471.06;5395543;32;34683;-67
2023/03/07 08:48:58;;;;;;;;;;;;;;;9.96;40.76;99471.81;5365113;32;35981;-64
2023/03/07 08:52:00;;;;;;;;;;;;;;;9.42;41.89;99479.75;5404254;32;34774;-64
2023/03/07 08:55:02;;;;;;;;;;;;;;;9.56;42.46;99483.47;5395126;32;34753;-70
2023/03/07 08:58:04;;;;;;;;;;;;;;;9.87;42.60;99477.56;5390967;32;33535;-65
2023/03/07 09:01:07;;;;;;;;;;;;;;;9.12;44.87;99475.97;5393886;32;36540;-77
2023/03/07 09:04:11;;;;;;;;;;;;;;;9.48;44.58;99486.47;5386999;32;34546;-65
2023/03/07 09:07:13;;;;;;;;;;;;;;;10.24;43.29;99480.03;5398832;32;43862;-76
2023/03/07 09:10:17;;;;;;;;;;;;;;;9.90;43.32;99470.34;5370488;32;35307;-68
2023/03/07 09:13:19;;;;;;;;;;;;;;;10.02;42.29;99468.88;5396771;32;34930;-78
2023/03/07 09:16:21;;;;;;;;;;;;;;;10.72;41.41;99480.97;5370127;32;36253;-76
2023/03/07 09:19:23;;;;;;;;;;;;;;;10.62;39.75;99473.66;5392172;32;35404;-78
2023/03/07 09:22:28;;;;;;;;;;;;;;;10.16;41.44;99473.44;5377712;32;36862;-72
2023/03/07 09:25:32;;;;;;;;;;;;;;;10.44;39.64;99478.97;5388541;32;36026;-79
2023/03/07 09:28:35;;;;;;;;;;;;;;;10.21;39.80;99479.28;5400960;32;35857;-66
2023/03/07 09:31:37;;;;;;;;;;;;;;;10.22;39.93;99475.72;5391341;32;34995;-69
2023/03/07 09:34:39;;;;;;;;;;;;;;;10.49;38.46;99471.69;5400170;32;34590;-68
2023/03/07 09:37:41;;;;;;;;;;;;;;;8.99;41.75;99478.34;5386622;32;34714;-66
2023/03/07 09:40:44;;;;;;;;;;;;;;;10.86;38.55;99461.81;5386828;32;45035;-73
2023/03/07 09:43:50;;;;;;;;;;;;;;;9.73;40.64;99476.47;5366465;32;36651;-71
2023/03/07 09:47:09;;;;;;;;;;;;;;;10.94;38.85;99464.03;5374364;32;34679;-75
2023/03/07 09:50:30;;;;;;;;;;;;;;;11.17;38.25;99471.50;5387037;32;34714;-72
2023/03/07 09:53:35;;;;;;;;;;;;;;;10.88;38.21;99464.34;5384043;32;36199;-72
2023/03/07 09:56:45;;;;;;;;;;;;;;;11.30;35.70;99463.75;5382777;32;34792;-68
2023/03/07 09:59:53;;;;;;;;;;;;;;;9.75;38.48;99474.63;5394143;32;45262;-66
2023/03/07 10:03:07;;;;;;;;;;;;;;;11.25;36.43;99456.12;5382386;32;34859;-72
2023/03/07 10:06:17;;;;;;;;;;;;;;;12.35;33.74;99465.47;5399653;32;38473;-70
2023/03/07 10:09:23;;;;;;;;;;;;;;;12.40;32.44;99449.38;5381313;32;35951;-66
2023/03/07 10:12:30;;;;;;;;;;;;;;;12.88;31.54;99450.75;5394519;32;35219;-69
2023/03/07 10:15:44;;;;;;;;;;;;;;;12.97;31.61;99451.97;5394975;32;34805;-65
2023/03/07 10:18:49;;;;;;;;;;;;;;;12.44;33.45;99471.97;5355193;32;44787;-65
2023/03/07 10:22:00;;;;;;;;;;;;;;;13.47;31.61;99459.28;5400330;32;38207;-65
2023/03/07 10:25:07;;;;;;;;;;;;;;;12.42;31.50;99463.28;5385365;32;35311;-64
2023/03/07 10:28:17;;;;;;;;;;;;;;;13.07;29.95;99468.03;5379170;32;35869;-63
2023/03/07 10:31:21;;;;;;;;;;;;;;;14.25;28.06;99458.47;5382078;32;44530;-67
2023/03/07 10:34:23;;;;;;;;;;;;;;;13.85;28.71;99463.81;5390284;32;37693;-67
2023/03/07 10:37:34;;;;;;;;;;;;;;;12.72;30.46;99456.12;5404565;32;36062;-66
2023/03/07 10:40:42;;;;;;;;;;;;;;;12.20;31.03;99461.97;5389835;32;35798;-70
2023/03/07 10:43:44;;;;;;;;;;;;;;;14.82;27.59;99450.06;5377179;32;45329;-70
2023/03/07 10:46:50;;;;;;;;;;;;;;;13.90;28.95;99451.13;5392086;32;34951;-71
2023/03/07 10:50:16;;;;;;;;;;;;;;;13.92;29.69;99440.47;5377368;32;35306;-68
2023/03/07 10:53:21;;;;;;;;;;;;;;;13.58;30.46;99437.44;5400310;32;48261;-74
2023/03/07 10:56:23;;;;;;;;;;;;;;;13.47;30.86;99438.16;5388499;32;36202;-62
2023/03/07 10:59:25;;;;;;;;;;;;;;;14.11;29.42;99432.13;5397886;32;34727;-69
2023/03/07 11:02:33;;;;;;;;;;;;;;;13.64;30.30;99418.53;5388119;32;34800;-74
2023/03/07 11:05:36;;;;;;;;;;;;;;;14.76;28.00;99426.69;5391409;32;34443;-68
2023/03/07 11:08:38;;;;;;;;;;;;;;;14.52;28.31;99405.47;5394816;32;35459;-70
2023/03/07 11:11:41;;;;;;;;;;;;;;;14.64;27.74;99407.25;5374332;32;34382;-84
2023/03/07 11:14:50;;;;;;;;;;;;;;;14.57;27.65;99408.66;5389850;32;44617;-73
2023/03/07 11:17:52;;;;;;;;;;;;;;;13.05;30.53;99410.09;5373997;32;35331;-81
2023/03/07 11:20:54;;;;;;;;;;;;;;;13.73;29.86;99402.09;5399294;32;34781;-74
2023/03/07 11:23:59;;;;;;;;;;;;;;;13.79;29.71;99403.47;5386969;32;36024;-76
2023/03/07 11:27:01;;;;;;;;;;;;;;;12.54;31.55;99396.66;5384841;32;34608;-75
2023/03/07 11:30:07;;;;;;;;;;;;;;;11.70;33.42;99393.88;5387193;32;34578;-72
2023/03/07 11:33:29;;;;;;;;;;;;;;;11.55;33.75;99390.38;5367571;32;34994;-71
2023/03/07 11:36:32;;;;;;;;;;;;;;;12.68;32.21;99372.91;5403345;32;34868;-67
2023/03/07 11:39:39;;;;;;;;;;;;;;;11.93;33.77;99372.31;5374378;32;35657;-73
2023/03/07 11:42:43;;;;;;;;;;;;;;;12.28;33.72;99357.91;5357544;32;34451;-75
2023/03/07 11:45:52;;;;;;;;;;;;;;;12.72;34.48;99360.37;5386550;32;45068;-76
2023/03/07 11:49:13;;;;;;;;;;;;;;;11.97;36.48;99367.69;5375441;32;35330;-69
2023/03/07 11:52:36;;;;;;;;;;;;;;;11.30;40.96;99367.28;5398503;32;44202;-79
2023/03/07 11:55:38;;;;;;;;;;;;;;;10.96;42.88;99373.63;5365040;32;34981;-68
2023/03/07 11:58:45;;;;;;;;;;;;;;;10.39;44.57;99364.56;5383426;32;36518;-73
2023/03/07 12:01:54;;;;;;;;;;;;;;;10.39;45.07;99370.66;5402627;32;44570;-71
2023/03/07 12:05:11;;;;;;;;;;;;;;;9.99;45.99;99362.28;5350340;32;36005;-75
2023/03/07 12:08:17;;;;;;;;;;;;;;;9.35;47.69;99360.34;5386374;32;43546;-68
2023/03/07 12:11:25;;;;;;;;;;;;;;;10.32;45.32;99371.09;5380632;32;33840;-81
2023/03/07 12:14:29;;;;;;;;;;;;;;;9.21;48.08;99366.28;5388286;32;36187;-79
2023/03/07 12:17:44;;;;;;;;;;;;;;;8.84;49.41;99359.38;5393017;32;34802;-80
2023/03/07 12:21:09;;;;;;;;;;;;;;;9.38;48.00;99356.72;5361779;32;44354;-84
2023/03/07 12:24:25;;;;;;;;;;;;;;;9.90;47.14;99348.78;5406857;32;35200;-76
2023/03/07 12:27:34;;;;;;;;;;;;;;;10.05;45.85;99342.75;5370067;32;34859;-72
2023/03/07 12:30:37;;;;;;;;;;;;;;;10.59;44.36;99343.31;5359285;32;34898;-71
2023/03/07 12:33:42;;;;;;;;;;;;;;;10.24;44.78;99348.72;5397107;32;36123;-78
2023/03/07 12:36:49;;;;;;;;;;;;;;;9.90;45.65;99348.78;5388713;32;44699;-64
2023/03/07 12:39:52;;;;;;;;;;;;;;;9.59;46.23;99354.78;5393636;32;35016;-66
2023/03/07 12:42:56;;;;;;;;;;;;;;;9.38;46.18;99348.84;5371022;32;36009;-65
2023/03/07 12:46:03;;;;;;;;;;;;;;;9.73;45.54;99336.56;5380062;32;36165;-65
2023/03/07 12:49:21;;;;;;;;;;;;;;;10.02;42.15;99341.09;5394525;32;34572;-69
2023/03/07 12:52:38;;;;;;;;;;;;;;;9.78;41.70;99345.87;5373719;32;35011;-67
2023/03/07 12:55:59;;;;;;;;;;;;;;;8.92;44.03;99338.87;5402618;32;34695;-68
2023/03/07 12:59:04;;;;;;;;;;;;;;;9.34;43.47;99339.44;5389145;32;35384;-66
2023/03/07 13:02:14;;;;;;;;;;;;;;;10.00;42.52;99336.88;5373404;32;34835;-67
2023/03/07 13:05:19;;;;;;;;;;;;;;;10.10;41.69;99324.94;5379267;32;44747;-69
2023/03/07 13:08:22;;;;;;;;;;;;;;;9.70;43.30;99334.94;5384514;32;35113;-68
2023/03/07 13:11:25;;;;;;;;;;;;;;;9.64;44.05;99335.25;5388706;32;35257;-68
2023/03/07 13:14:46;;;;;;;;;;;;;;;9.75;44.58;99342.56;5385504;32;36102;-65
2023/03/07 13:17:59;;;;;;;;;;;;;;;9.40;45.36;99333.88;5393993;32;44925;-64
2023/03/07 13:21:08;;;;;;;;;;;;;;;9.44;46.06;99344.13;5390095;32;34777;-67
2023/03/07 13:24:35;;;;;;;;;;;;;;;9.58;45.92;99348.69;5389293;32;45183;-72
2023/03/07 13:27:40;;;;;;;;;;;;;;;9.09;46.74;99352.94;5388041;32;35269;-70
2023/03/07 13:30:49;;;;;;;;;;;;;;;8.68;47.64;99354.00;5384692;32;35843;-75
2023/03/07 13:33:52;;;;;;;;;;;;;;;8.91;47.34;99344.19;5388470;32;44538;-64
2023/03/07 13:36:53;;;;;;;;;;;;;;;8.92;47.41;99338.03;5397803;32;34908;-69
2023/03/07 13:40:01;;;;;;;;;;;;;;;9.07;47.47;99350.38;5389738;32;35712;-74
2023/03/07 13:43:08;;;;;;;;;;;;;;;9.16;47.49;99349.94;5363422;32;36532;-76
2023/03/07 13:46:17;;;;;;;;;;;;;;;9.16;47.33;99342.06;5372614;32;36032;-65
2023/03/07 13:49:45;;;;;;;;;;;;;;;9.49;46.66;99346.53;5394245;32;44414;-76
2023/03/07 13:52:47;;;;;;;;;;;;;;;9.60;46.33;99341.59;5387941;32;44970;-77
2023/03/07 13:55:54;;;;;;;;;;;;;;;9.04;47.71;99329.56;5383173;32;34985;-74
2023/03/07 13:59:00;;;;;;;;;;;;;;;10.02;45.56;99337.63;5401118;32;36029;-85
2023/03/07 14:02:03;;;;;;;;;;;;;;;9.62;45.95;99331.84;5375725;32;37802;-77
2023/03/07 14:05:05;;;;;;;;;;;;;;;8.88;47.70;99326.00;5391319;32;34505;-65
2023/03/07 14:08:07;;;;;;;;;;;;;;;8.53;48.88;99318.06;5385841;32;34593;-78
2023/03/07 14:11:27;;;;;;;;;;;;;;;9.29;47.30;99305.59;5379960;32;35097;-68
2023/03/07 14:14:32;;;;;;;;;;;;;;;9.46;46.59;99297.69;5384328;32;36152;-62
2023/03/07 14:17:53;;;;;;;;;;;;;;;9.23;47.31;99301.50;5375522;32;35254;-68
2023/03/07 14:21:11;;;;;;;;;;;;;;;8.87;48.14;99298.94;5399700;32;35408;-75
2023/03/07 14:24:20;;;;;;;;;;;;;;;8.49;49.24;99292.09;5390350;32;45708;-65
2023/03/07 14:27:24;;;;;;;;;;;;;;;8.67;49.31;99286.81;5369572;32;35193;-63
2023/03/07 14:30:29;;;;;;;;;;;;;;;8.94;48.96;99291.63;5377057;32;35793;-70
2023/03/07 14:33:30;;;;;;;;;;;;;;;8.78;48.93;99282.84;5386891;32;37504;-69
2023/03/07 14:36:32;;;;;;;;;;;;;;;8.63;48.75;99281.81;5394203;32;34947;-66
2023/03/07 14:39:53;;;;;;;;;;;;;;;8.55;49.24;99278.72;5380151;32;34597;-79
2023/03/07 14:42:59;;;;;;;;;;;;;;;9.63;47.47;99281.09;5372790;32;34817;-76
2023/03/07 14:46:12;;;;;;;;;;;;;;;9.19;48.89;99272.91;5404190;32;37089;-73
2023/03/07 14:49:14;;;;;;;;;;;;;;;9.48;48.01;99285.37;5378100;32;45036;-79
2023/03/07 14:52:16;;;;;;;;;;;;;;;9.07;49.29;99273.50;5395448;32;36841;-76
2023/03/07 14:55:38;;;;;;;;;;;;;;;8.50;50.97;99284.19;5391907;32;34978;-78
2023/03/07 14:58:47;;;;;;;;;;;;;;;8.71;50.88;99277.06;5373805;32;34657;-76
2023/03/07 15:01:49;;;;;;;;;;;;;;;9.58;48.69;99280.47;5377306;32;44572;-66
2023/03/07 15:04:53;;;;;;;;;;;;;;;8.98;50.33;99276.63;5363846;32;37016;-66
2023/03/07 15:07:55;;;;;;;;;;;;;;;9.36;49.94;99280.75;5375651;32;34651;-79
2023/03/07 15:11:02;;;;;;;;;;;;;;;9.66;49.37;99274.81;5373786;32;36568;-64
2023/03/07 15:14:12;;;;;;;;;;;;;;;9.13;50.76;99281.06;5383575;32;34768;-78
2023/03/07 15:17:42;;;;;;;;;;;;;;;9.45;50.80;99280.25;5384522;32;44521;-65
2023/03/07 15:20:45;;;;;;;;;;;;;;;9.29;51.75;99271.50;5372460;32;44395;-65
2023/03/07 15:23:53;;;;;;;;;;;;;;;9.56;51.24;99271.84;5392077;32;34715;-78
2023/03/07 15:26:56;;;;;;;;;;;;;;;9.99;49.99;99266.94;5375898;32;35420;-67
2023/03/07 15:30:00;;;;;;;;;;;;;;;10.29;49.09;99273.12;5377938;32;36096;-73
2023/03/07 15:33:31;;;;;;;;;;;;;;;9.33;51.55;99272.19;5369257;32;35883;-66
2023/03/07 15:36:36;;;;;;;;;;;;;;;8.92;52.79;99275.13;5369588;32;34801;-75
2023/03/07 15:39:37;;;;;;;;;;;;;;;8.91;53.26;99274.28;5383228;32;35582;-74
2023/03/07 15:42:49;;;;;;;;;;;;;;;9.07;52.91;99263.03;5363808;32;34736;-77
2023/03/07 15:46:01;;;;;;;;;;;;;;;9.20;53.00;99258.84;5405609;32;44813;-66
2023/03/07 15:49:03;;;;;;;;;;;;;;;9.50;52.25;99256.44;5405740;32;36300;-76
2023/03/07 15:52:06;;;;;;;;;;;;;;;9.27;52.96;99246.28;5400114;32;34779;-64
2023/03/07 15:55:17;;;;;;;;;;;;;;;8.81;54.75;99246.00;5415696;32;35544;-64
2023/03/07 15:58:20;;;;;;;;;;;;;;;8.47;55.22;99237.19;5385165;32;44579;-65
2023/03/07 16:01:22;;;;;;;;;;;;;;;9.33;52.47;99230.22;5413461;32;35589;-66
2023/03/07 16:04:34;;;;;;;;;;;;;;;9.19;53.13;99230.94;5403500;32;34880;-66
2023/03/07 16:07:36;;;;;;;;;;;;;;;9.01;53.86;99227.50;5404300;32;35552;-77
2023/03/07 16:10:38;;;;;;;;;;;;;;;8.91;53.95;99223.66;5412330;32;34937;-65
2023/03/07 16:13:41;;;;;;;;;;;;;;;9.02;54.10;99218.72;5400396;32;35956;-65